sensor_id;sensor_type;location;lat;lon;timestamp;P1;durP1;ratioP1;P2;durP2;ratioP2
31132;SDS011;17779;50.942;4.026;2023-04-01T00:00:30;10.77;;;1.92;;
31132;SDS011;17779;50.942;4.026;2023-04-01T00:02:56;11.07;;;2.20;;
31132;SDS011;17779;50.942;4.026;2023-04-01T00:05:22;6.43;;;2.33;;
31132;SDS011;17779;50.942;4.026;2023-04-01T00:07:49;12.55;;;2.15;;
31132;SDS011;17779;50.942;4.026;2023-04-01T00:10:16;9.82;;;2.30;;
31132;SDS011;17779;50.942;4.026;2023-04-01T00:12:42;9.55;;;2.47;;
31132;SDS011;17779;50.942;4.026;2023-04-01T00:15:09;8.63;;;2.40;;
31132;SDS011;17779;50.942;4.026;2023-04-01T00:17:36;12.25;;;2.47;;
31132;SDS011;17779;50.942;4.026;2023-04-01T00:20:03;7.85;;;2.10;;
31132;SDS011;17779;50.942;4.026;2023-04-01T00:22:30;12.45;;;2.63;;
31132;SDS011;17779;50.942;4.026;2023-04-01T00:24:56;12.52;;;2.90;;
31132;SDS011;17779;50.942;4.026;2023-04-01T00:27:22;9.23;;;2.55;;
31132;SDS011;17779;50.942;4.026;2023-04-01T00:29:47;8.65;;;2.80;;
31132;SDS011;17779;50.942;4.026;2023-04-01T00:32:14;12.23;;;2.97;;
31132;SDS011;17779;50.942;4.026;2023-04-01T00:34:40;10.20;;;2.97;;
31132;SDS011;17779;50.942;4.026;2023-04-01T00:37:06;7.97;;;2.75;;
31132;SDS011;17779;50.942;4.026;2023-04-01T00:39:33;10.93;;;3.25;;
31132;SDS011;17779;50.942;4.026;2023-04-01T00:42:00;11.10;;;3.60;;
31132;SDS011;17779;50.942;4.026;2023-04-01T00:44:27;13.60;;;3.67;;
31132;SDS011;17779;50.942;4.026;2023-04-01T00:46:55;11.48;;;3.95;;
31132;SDS011;17779;50.942;4.026;2023-04-01T00:49:29;11.75;;;3.45;;
31132;SDS011;17779;50.942;4.026;2023-04-01T00:52:05;9.98;;;3.50;;
31132;SDS011;17779;50.942;4.026;2023-04-01T00:54:33;13.23;;;3.72;;
31132;SDS011;17779;50.942;4.026;2023-04-01T00:57:12;10.57;;;3.90;;
31132;SDS011;17779;50.942;4.026;2023-04-01T00:59:47;11.90;;;3.85;;
31132;SDS011;17779;50.942;4.026;2023-04-01T01:02:16;12.77;;;3.70;;
31132;SDS011;17779;50.942;4.026;2023-04-01T01:04:42;10.07;;;3.83;;
31132;SDS011;17779;50.942;4.026;2023-04-01T01:09:45;12.20;;;4.10;;
31132;SDS011;17779;50.942;4.026;2023-04-01T01:12:24;13.23;;;4.43;;
31132;SDS011;17779;50.942;4.026;2023-04-01T01:15:12;15.70;;;4.40;;
31132;SDS011;17779;50.942;4.026;2023-04-01T01:18:15;11.25;;;4.30;;
31132;SDS011;17779;50.942;4.026;2023-04-01T01:24:17;12.52;;;4.70;;
31132;SDS011;17779;50.942;4.026;2023-04-01T01:27:09;9.85;;;4.50;;
31132;SDS011;17779;50.942;4.026;2023-04-01T01:38:10;9.43;;;3.80;;
31132;SDS011;17779;50.942;4.026;2023-04-01T01:40:41;8.10;;;3.53;;
31132;SDS011;17779;50.942;4.026;2023-04-01T01:43:12;11.43;;;4.18;;
31132;SDS011;17779;50.942;4.026;2023-04-01T01:45:43;11.55;;;4.15;;
31132;SDS011;17779;50.942;4.026;2023-04-01T01:48:13;13.93;;;3.58;;
31132;SDS011;17779;50.942;4.026;2023-04-01T01:50:40;13.75;;;3.38;;
31132;SDS011;17779;50.942;4.026;2023-04-01T01:53:09;17.63;;;4.93;;
31132;SDS011;17779;50.942;4.026;2023-04-01T01:55:38;10.30;;;3.78;;
31132;SDS011;17779;50.942;4.026;2023-04-01T01:58:19;12.63;;;4.20;;
31132;SDS011;17779;50.942;4.026;2023-04-01T02:00:58;10.30;;;3.80;;
31132;SDS011;17779;50.942;4.026;2023-04-01T02:03:26;9.30;;;3.53;;
31132;SDS011;17779;50.942;4.026;2023-04-01T02:05:55;14.10;;;3.65;;
31132;SDS011;17779;50.942;4.026;2023-04-01T02:08:27;12.88;;;3.60;;
31132;SDS011;17779;50.942;4.026;2023-04-01T02:11:07;12.55;;;3.45;;
31132;SDS011;17779;50.942;4.026;2023-04-01T02:13:50;15.13;;;3.47;;
31132;SDS011;17779;50.942;4.026;2023-04-01T02:18:59;14.18;;;4.28;;
31132;SDS011;17779;50.942;4.026;2023-04-01T02:21:32;13.65;;;3.40;;
31132;SDS011;17779;50.942;4.026;2023-04-01T02:23:58;12.45;;;3.17;;
31132;SDS011;17779;50.942;4.026;2023-04-01T02:26:28;15.32;;;3.60;;
31132;SDS011;17779;50.942;4.026;2023-04-01T02:31:20;14.40;;;3.42;;
31132;SDS011;17779;50.942;4.026;2023-04-01T02:33:47;15.48;;;4.00;;
31132;SDS011;17779;50.942;4.026;2023-04-01T02:36:13;9.50;;;3.78;;
31132;SDS011;17779;50.942;4.026;2023-04-01T02:38:40;13.57;;;3.90;;
31132;SDS011;17779;50.942;4.026;2023-04-01T02:41:07;19.05;;;4.32;;
31132;SDS011;17779;50.942;4.026;2023-04-01T02:43:33;15.40;;;4.47;;
31132;SDS011;17779;50.942;4.026;2023-04-01T02:45:59;21.10;;;5.30;;
31132;SDS011;17779;50.942;4.026;2023-04-01T02:48:25;14.25;;;5.68;;
31132;SDS011;17779;50.942;4.026;2023-04-01T02:50:50;14.30;;;4.90;;
31132;SDS011;17779;50.942;4.026;2023-04-01T02:53:16;20.45;;;6.28;;
31132;SDS011;17779;50.942;4.026;2023-04-01T02:55:42;17.95;;;5.20;;
31132;SDS011;17779;50.942;4.026;2023-04-01T02:58:09;20.10;;;5.63;;
31132;SDS011;17779;50.942;4.026;2023-04-01T03:00:35;18.13;;;5.80;;
31132;SDS011;17779;50.942;4.026;2023-04-01T03:03:01;22.30;;;6.57;;
31132;SDS011;17779;50.942;4.026;2023-04-01T03:05:27;21.73;;;7.45;;
31132;SDS011;17779;50.942;4.026;2023-04-01T03:07:53;22.08;;;6.03;;
31132;SDS011;17779;50.942;4.026;2023-04-01T03:10:19;20.70;;;6.82;;
31132;SDS011;17779;50.942;4.026;2023-04-01T03:12:45;17.35;;;5.88;;
31132;SDS011;17779;50.942;4.026;2023-04-01T03:15:11;15.20;;;5.53;;
31132;SDS011;17779;50.942;4.026;2023-04-01T03:17:39;19.65;;;7.35;;
31132;SDS011;17779;50.942;4.026;2023-04-01T03:20:06;21.55;;;6.82;;
31132;SDS011;17779;50.942;4.026;2023-04-01T03:22:33;17.25;;;6.00;;
31132;SDS011;17779;50.942;4.026;2023-04-01T03:25:00;15.52;;;5.55;;
31132;SDS011;17779;50.942;4.026;2023-04-01T03:27:30;17.88;;;5.60;;
31132;SDS011;17779;50.942;4.026;2023-04-01T03:29:55;16.08;;;5.68;;
31132;SDS011;17779;50.942;4.026;2023-04-01T03:32:21;17.77;;;6.20;;
31132;SDS011;17779;50.942;4.026;2023-04-01T03:34:47;14.90;;;5.95;;
31132;SDS011;17779;50.942;4.026;2023-04-01T03:37:13;20.55;;;6.53;;
31132;SDS011;17779;50.942;4.026;2023-04-01T03:42:05;15.90;;;5.72;;
31132;SDS011;17779;50.942;4.026;2023-04-01T03:44:32;18.65;;;5.35;;
31132;SDS011;17779;50.942;4.026;2023-04-01T03:46:58;19.77;;;6.63;;
31132;SDS011;17779;50.942;4.026;2023-04-01T03:49:25;18.48;;;5.85;;
31132;SDS011;17779;50.942;4.026;2023-04-01T03:51:51;19.17;;;5.38;;
31132;SDS011;17779;50.942;4.026;2023-04-01T03:54:17;11.93;;;5.60;;
31132;SDS011;17779;50.942;4.026;2023-04-01T03:56:44;14.98;;;5.40;;
31132;SDS011;17779;50.942;4.026;2023-04-01T03:59:10;16.52;;;5.78;;
31132;SDS011;17779;50.942;4.026;2023-04-01T04:01:35;13.32;;;5.05;;
31132;SDS011;17779;50.942;4.026;2023-04-01T04:04:01;11.85;;;4.93;;
31132;SDS011;17779;50.942;4.026;2023-04-01T04:06:27;16.58;;;5.22;;
31132;SDS011;17779;50.942;4.026;2023-04-01T04:08:53;13.70;;;4.90;;
31132;SDS011;17779;50.942;4.026;2023-04-01T04:11:19;12.23;;;4.45;;
31132;SDS011;17779;50.942;4.026;2023-04-01T04:13:45;10.25;;;3.75;;
31132;SDS011;17779;50.942;4.026;2023-04-01T04:16:13;7.45;;;3.10;;
31132;SDS011;17779;50.942;4.026;2023-04-01T04:18:40;8.98;;;3.38;;
31132;SDS011;17779;50.942;4.026;2023-04-01T04:21:05;7.25;;;3.13;;
31132;SDS011;17779;50.942;4.026;2023-04-01T04:23:32;6.78;;;3.60;;
31132;SDS011;17779;50.942;4.026;2023-04-01T04:26:02;7.22;;;3.78;;
31132;SDS011;17779;50.942;4.026;2023-04-01T04:28:30;7.63;;;3.40;;
31132;SDS011;17779;50.942;4.026;2023-04-01T04:33:22;6.70;;;3.20;;
31132;SDS011;17779;50.942;4.026;2023-04-01T04:35:48;4.90;;;2.70;;
31132;SDS011;17779;50.942;4.026;2023-04-01T04:38:14;6.85;;;3.05;;
31132;SDS011;17779;50.942;4.026;2023-04-01T04:40:41;4.65;;;2.90;;
31132;SDS011;17779;50.942;4.026;2023-04-01T04:43:10;7.05;;;2.60;;
31132;SDS011;17779;50.942;4.026;2023-04-01T04:45:37;6.78;;;2.42;;
31132;SDS011;17779;50.942;4.026;2023-04-01T04:48:03;8.65;;;2.90;;
31132;SDS011;17779;50.942;4.026;2023-04-01T04:50:29;7.25;;;3.13;;
31132;SDS011;17779;50.942;4.026;2023-04-01T04:52:55;4.15;;;2.85;;
31132;SDS011;17779;50.942;4.026;2023-04-01T04:55:21;4.30;;;2.67;;
31132;SDS011;17779;50.942;4.026;2023-04-01T04:57:46;4.53;;;2.80;;
31132;SDS011;17779;50.942;4.026;2023-04-01T05:00:12;6.18;;;3.72;;
31132;SDS011;17779;50.942;4.026;2023-04-01T05:02:38;9.00;;;4.05;;
31132;SDS011;17779;50.942;4.026;2023-04-01T05:05:04;7.20;;;4.25;;
31132;SDS011;17779;50.942;4.026;2023-04-01T05:09:56;11.57;;;4.65;;
31132;SDS011;17779;50.942;4.026;2023-04-01T05:12:21;9.77;;;4.95;;
31132;SDS011;17779;50.942;4.026;2023-04-01T05:14:47;10.73;;;5.45;;
31132;SDS011;17779;50.942;4.026;2023-04-01T05:17:13;14.05;;;6.43;;
31132;SDS011;17779;50.942;4.026;2023-04-01T05:19:38;17.23;;;5.90;;
31132;SDS011;17779;50.942;4.026;2023-04-01T05:22:04;12.63;;;6.45;;
31132;SDS011;17779;50.942;4.026;2023-04-01T05:24:31;12.10;;;6.28;;
31132;SDS011;17779;50.942;4.026;2023-04-01T05:29:23;15.02;;;6.38;;
31132;SDS011;17779;50.942;4.026;2023-04-01T05:31:49;9.18;;;5.65;;
31132;SDS011;17779;50.942;4.026;2023-04-01T05:34:15;14.10;;;6.22;;
31132;SDS011;17779;50.942;4.026;2023-04-01T05:36:42;14.45;;;6.60;;
31132;SDS011;17779;50.942;4.026;2023-04-01T05:39:09;18.30;;;6.90;;
31132;SDS011;17779;50.942;4.026;2023-04-01T05:41:35;11.75;;;6.05;;
31132;SDS011;17779;50.942;4.026;2023-04-01T05:44:02;14.32;;;6.63;;
31132;SDS011;17779;50.942;4.026;2023-04-01T05:48:53;17.75;;;6.22;;
31132;SDS011;17779;50.942;4.026;2023-04-01T05:51:19;19.17;;;7.13;;
31132;SDS011;17779;50.942;4.026;2023-04-01T05:53:45;19.00;;;7.57;;
31132;SDS011;17779;50.942;4.026;2023-04-01T05:56:11;21.75;;;8.02;;
31132;SDS011;17779;50.942;4.026;2023-04-01T05:58:38;19.05;;;7.80;;
31132;SDS011;17779;50.942;4.026;2023-04-01T06:01:05;17.33;;;7.57;;
31132;SDS011;17779;50.942;4.026;2023-04-01T06:03:32;17.67;;;8.70;;
31132;SDS011;17779;50.942;4.026;2023-04-01T06:05:58;18.75;;;8.02;;
31132;SDS011;17779;50.942;4.026;2023-04-01T06:08:26;14.43;;;8.18;;
31132;SDS011;17779;50.942;4.026;2023-04-01T06:11:01;19.05;;;8.85;;
31132;SDS011;17779;50.942;4.026;2023-04-01T06:13:52;22.30;;;8.88;;
31132;SDS011;17779;50.942;4.026;2023-04-01T06:25:33;15.02;;;7.05;;
31132;SDS011;17779;50.942;4.026;2023-04-01T06:36:53;13.65;;;7.22;;
31132;SDS011;17779;50.942;4.026;2023-04-01T06:50:48;8.95;;;4.85;;
31132;SDS011;17779;50.942;4.026;2023-04-01T06:56:19;4.35;;;2.25;;
31132;SDS011;17779;50.942;4.026;2023-04-01T06:58:55;3.70;;;2.15;;
31132;SDS011;17779;50.942;4.026;2023-04-01T07:04:11;5.40;;;2.15;;
31132;SDS011;17779;50.942;4.026;2023-04-01T07:07:17;4.57;;;2.00;;
31132;SDS011;17779;50.942;4.026;2023-04-01T07:09:41;5.63;;;1.60;;
31132;SDS011;17779;50.942;4.026;2023-04-01T07:12:18;2.30;;;1.33;;
31132;SDS011;17779;50.942;4.026;2023-04-01T07:14:48;3.08;;;1.60;;
31132;SDS011;17779;50.942;4.026;2023-04-01T07:17:16;3.72;;;1.58;;
31132;SDS011;17779;50.942;4.026;2023-04-01T07:19:47;3.03;;;1.33;;
31132;SDS011;17779;50.942;4.026;2023-04-01T07:22:27;3.50;;;1.60;;
31132;SDS011;17779;50.942;4.026;2023-04-01T07:25:01;2.40;;;1.65;;
31132;SDS011;17779;50.942;4.026;2023-04-01T07:27:30;3.15;;;1.50;;
31132;SDS011;17779;50.942;4.026;2023-04-01T07:29:57;3.97;;;2.20;;
31132;SDS011;17779;50.942;4.026;2023-04-01T07:32:29;5.45;;;2.20;;
31132;SDS011;17779;50.942;4.026;2023-04-01T07:35:29;4.00;;;1.88;;
31132;SDS011;17779;50.942;4.026;2023-04-01T07:51:51;4.40;;;1.73;;
31132;SDS011;17779;50.942;4.026;2023-04-01T07:57:19;3.42;;;1.45;;
31132;SDS011;17779;50.942;4.026;2023-04-01T08:02:54;3.50;;;1.45;;
31132;SDS011;17779;50.942;4.026;2023-04-01T08:05:27;2.08;;;1.30;;
31132;SDS011;17779;50.942;4.026;2023-04-01T08:11:13;4.93;;;1.40;;
31132;SDS011;17779;50.942;4.026;2023-04-01T08:14:21;3.50;;;1.63;;
31132;SDS011;17779;50.942;4.026;2023-04-01T08:17:08;3.05;;;1.40;;
31132;SDS011;17779;50.942;4.026;2023-04-01T08:25:25;2.42;;;1.58;;
31132;SDS011;17779;50.942;4.026;2023-04-01T08:27:55;5.22;;;1.80;;
31132;SDS011;17779;50.942;4.026;2023-04-01T08:30:42;4.07;;;1.60;;
31132;SDS011;17779;50.942;4.026;2023-04-01T08:36:05;3.47;;;1.90;;
31132;SDS011;17779;50.942;4.026;2023-04-01T08:38:51;4.35;;;1.50;;
31132;SDS011;17779;50.942;4.026;2023-04-01T08:56:40;3.15;;;1.65;;
31132;SDS011;17779;50.942;4.026;2023-04-01T09:04:25;4.95;;;2.13;;
31132;SDS011;17779;50.942;4.026;2023-04-01T09:07:07;4.32;;;1.95;;
31132;SDS011;17779;50.942;4.026;2023-04-01T09:28:58;7.60;;;2.65;;
31132;SDS011;17779;50.942;4.026;2023-04-01T09:37:18;6.25;;;2.28;;
31132;SDS011;17779;50.942;4.026;2023-04-01T09:40:16;6.30;;;2.75;;
31132;SDS011;17779;50.942;4.026;2023-04-01T09:43:00;4.05;;;1.80;;
31132;SDS011;17779;50.942;4.026;2023-04-01T10:07:43;2.55;;;1.30;;
31132;SDS011;17779;50.942;4.026;2023-04-01T10:21:56;5.78;;;1.13;;
31132;SDS011;17779;50.942;4.026;2023-04-01T10:27:10;3.78;;;1.13;;
31132;SDS011;17779;50.942;4.026;2023-04-01T10:30:13;4.38;;;1.27;;
31132;SDS011;17779;50.942;4.026;2023-04-01T10:36:23;2.27;;;1.07;;
31132;SDS011;17779;50.942;4.026;2023-04-01T10:56:46;2.83;;;1.10;;
31132;SDS011;17779;50.942;4.026;2023-04-01T10:59:53;3.17;;;1.27;;
31132;SDS011;17779;50.942;4.026;2023-04-01T11:13:21;2.30;;;1.30;;
31132;SDS011;17779;50.942;4.026;2023-04-01T11:22:06;3.67;;;1.30;;
31132;SDS011;17779;50.942;4.026;2023-04-01T11:25:00;3.42;;;1.30;;
31132;SDS011;17779;50.942;4.026;2023-04-01T11:36:11;4.47;;;1.52;;
31132;SDS011;17779;50.942;4.026;2023-04-01T11:39:00;2.83;;;1.10;;
31132;SDS011;17779;50.942;4.026;2023-04-01T11:41:46;5.40;;;1.20;;
31132;SDS011;17779;50.942;4.026;2023-04-01T11:44:19;2.25;;;1.20;;
31132;SDS011;17779;50.942;4.026;2023-04-01T11:49:46;2.83;;;1.33;;
31132;SDS011;17779;50.942;4.026;2023-04-01T11:52:18;3.15;;;1.30;;
31132;SDS011;17779;50.942;4.026;2023-04-01T11:55:11;5.35;;;1.75;;
31132;SDS011;17779;50.942;4.026;2023-04-01T12:08:51;6.30;;;1.92;;
31132;SDS011;17779;50.942;4.026;2023-04-01T12:11:57;13.00;;;1.92;;
31132;SDS011;17779;50.942;4.026;2023-04-01T12:22:46;4.38;;;2.05;;
31132;SDS011;17779;50.942;4.026;2023-04-01T12:31:13;2.35;;;1.52;;
31132;SDS011;17779;50.942;4.026;2023-04-01T12:33:52;4.57;;;1.52;;
31132;SDS011;17779;50.942;4.026;2023-04-01T12:42:07;2.67;;;1.55;;
31132;SDS011;17779;50.942;4.026;2023-04-01T12:47:11;3.33;;;1.58;;
31132;SDS011;17779;50.942;4.026;2023-04-01T12:49:45;5.15;;;1.70;;
31132;SDS011;17779;50.942;4.026;2023-04-01T12:55:45;4.57;;;1.80;;
31132;SDS011;17779;50.942;4.026;2023-04-01T12:58:30;4.65;;;1.70;;
31132;SDS011;17779;50.942;4.026;2023-04-01T13:04:34;5.53;;;1.85;;
31132;SDS011;17779;50.942;4.026;2023-04-01T13:26:17;4.53;;;1.83;;
31132;SDS011;17779;50.942;4.026;2023-04-01T13:34:21;7.63;;;2.53;;
31132;SDS011;17779;50.942;4.026;2023-04-01T13:37:15;5.15;;;1.90;;
31132;SDS011;17779;50.942;4.026;2023-04-01T13:42:37;4.07;;;1.95;;
31132;SDS011;17779;50.942;4.026;2023-04-01T13:53:47;5.13;;;2.07;;
31132;SDS011;17779;50.942;4.026;2023-04-01T13:56:30;2.42;;;1.33;;
31132;SDS011;17779;50.942;4.026;2023-04-01T14:07:32;3.03;;;1.00;;
31132;SDS011;17779;50.942;4.026;2023-04-01T14:10:18;5.85;;;1.75;;
31132;SDS011;17779;50.942;4.026;2023-04-01T14:40:45;11.73;;;2.17;;
31132;SDS011;17779;50.942;4.026;2023-04-01T14:48:58;4.30;;;1.30;;
31132;SDS011;17779;50.942;4.026;2023-04-01T14:51:39;2.90;;;1.20;;
31132;SDS011;17779;50.942;4.026;2023-04-01T14:54:16;4.40;;;1.38;;
31132;SDS011;17779;50.942;4.026;2023-04-01T14:57:01;3.47;;;1.40;;
31132;SDS011;17779;50.942;4.026;2023-04-01T14:59:48;2.90;;;1.15;;
31132;SDS011;17779;50.942;4.026;2023-04-01T15:08:16;4.95;;;1.50;;
31132;SDS011;17779;50.942;4.026;2023-04-01T15:10:53;3.78;;;1.20;;
31132;SDS011;17779;50.942;4.026;2023-04-01T15:21:44;2.53;;;1.00;;
31132;SDS011;17779;50.942;4.026;2023-04-01T15:27:44;10.75;;;4.88;;
31132;SDS011;17779;50.942;4.026;2023-04-01T15:41:01;3.85;;;1.60;;
31132;SDS011;17779;50.942;4.026;2023-04-01T15:43:44;3.67;;;1.20;;
31132;SDS011;17779;50.942;4.026;2023-04-01T16:08:59;6.28;;;1.67;;
31132;SDS011;17779;50.942;4.026;2023-04-01T16:14:18;5.05;;;1.70;;
31132;SDS011;17779;50.942;4.026;2023-04-01T16:16:58;3.22;;;1.63;;
31132;SDS011;17779;50.942;4.026;2023-04-01T16:30:40;3.67;;;1.63;;
31132;SDS011;17779;50.942;4.026;2023-04-01T16:39:17;3.83;;;1.63;;
31132;SDS011;17779;50.942;4.026;2023-04-01T16:42:08;10.13;;;1.85;;
31132;SDS011;17779;50.942;4.026;2023-04-01T16:44:55;4.43;;;1.67;;
31132;SDS011;17779;50.942;4.026;2023-04-01T16:47:53;4.30;;;1.60;;
31132;SDS011;17779;50.942;4.026;2023-04-01T16:53:21;3.55;;;1.90;;
31132;SDS011;17779;50.942;4.026;2023-04-01T16:58:37;5.47;;;2.00;;
31132;SDS011;17779;50.942;4.026;2023-04-01T17:01:27;5.13;;;2.05;;
31132;SDS011;17779;50.942;4.026;2023-04-01T17:04:04;9.85;;;3.40;;
31132;SDS011;17779;50.942;4.026;2023-04-01T17:06:45;6.03;;;2.88;;
31132;SDS011;17779;50.942;4.026;2023-04-01T17:14:46;9.65;;;3.15;;
31132;SDS011;17779;50.942;4.026;2023-04-01T17:17:24;4.95;;;2.00;;
31132;SDS011;17779;50.942;4.026;2023-04-01T17:19:57;3.28;;;1.90;;
31132;SDS011;17779;50.942;4.026;2023-04-01T17:22:49;3.72;;;1.77;;
31132;SDS011;17779;50.942;4.026;2023-04-01T17:25:33;5.18;;;2.13;;
31132;SDS011;17779;50.942;4.026;2023-04-01T17:28:28;4.47;;;2.05;;
31132;SDS011;17779;50.942;4.026;2023-04-01T17:31:11;6.03;;;2.70;;
31132;SDS011;17779;50.942;4.026;2023-04-01T17:37:18;8.02;;;3.08;;
31132;SDS011;17779;50.942;4.026;2023-04-01T17:42:37;7.30;;;2.78;;
31132;SDS011;17779;50.942;4.026;2023-04-01T17:54:11;5.30;;;2.63;;
31132;SDS011;17779;50.942;4.026;2023-04-01T17:59:39;6.63;;;2.72;;
31132;SDS011;17779;50.942;4.026;2023-04-01T18:10:41;5.78;;;2.40;;
31132;SDS011;17779;50.942;4.026;2023-04-01T18:22:21;8.02;;;3.90;;
31132;SDS011;17779;50.942;4.026;2023-04-01T18:27:44;10.20;;;4.82;;
31132;SDS011;17779;50.942;4.026;2023-04-01T18:30:34;9.98;;;4.38;;
31132;SDS011;17779;50.942;4.026;2023-04-01T18:35:34;10.48;;;4.40;;
31132;SDS011;17779;50.942;4.026;2023-04-01T18:38:29;9.65;;;4.90;;
31132;SDS011;17779;50.942;4.026;2023-04-01T18:41:14;8.95;;;4.07;;
31132;SDS011;17779;50.942;4.026;2023-04-01T18:46:34;10.43;;;4.20;;
31132;SDS011;17779;50.942;4.026;2023-04-01T19:00:27;19.08;;;8.68;;
31132;SDS011;17779;50.942;4.026;2023-04-01T19:03:48;21.77;;;9.20;;
31132;SDS011;17779;50.942;4.026;2023-04-01T19:05:56;21.52;;;10.45;;
31132;SDS011;17779;50.942;4.026;2023-04-01T19:08:34;28.50;;;11.27;;
31132;SDS011;17779;50.942;4.026;2023-04-01T19:11:25;25.38;;;11.20;;
31132;SDS011;17779;50.942;4.026;2023-04-01T19:14:12;23.67;;;11.40;;
31132;SDS011;17779;50.942;4.026;2023-04-01T19:16:48;24.48;;;11.55;;
31132;SDS011;17779;50.942;4.026;2023-04-01T19:22:16;31.83;;;13.10;;
31132;SDS011;17779;50.942;4.026;2023-04-01T19:41:44;28.75;;;13.55;;
31132;SDS011;17779;50.942;4.026;2023-04-01T19:46:49;35.38;;;15.95;;
31132;SDS011;17779;50.942;4.026;2023-04-01T20:00:52;37.63;;;14.63;;
31132;SDS011;17779;50.942;4.026;2023-04-01T20:03:37;32.83;;;13.80;;
31132;SDS011;17779;50.942;4.026;2023-04-01T20:15:19;33.75;;;15.05;;
31132;SDS011;17779;50.942;4.026;2023-04-01T20:17:46;34.97;;;14.40;;
31132;SDS011;17779;50.942;4.026;2023-04-01T20:20:17;41.47;;;16.98;;
31132;SDS011;17779;50.942;4.026;2023-04-01T20:25:49;41.72;;;16.25;;
31132;SDS011;17779;50.942;4.026;2023-04-01T20:36:26;33.72;;;16.02;;
31132;SDS011;17779;50.942;4.026;2023-04-01T20:39:03;40.83;;;17.73;;
31132;SDS011;17779;50.942;4.026;2023-04-01T20:49:59;48.38;;;20.90;;
31132;SDS011;17779;50.942;4.026;2023-04-01T20:52:45;48.13;;;20.20;;
31132;SDS011;17779;50.942;4.026;2023-04-01T20:55:24;54.03;;;22.23;;
31132;SDS011;17779;50.942;4.026;2023-04-01T21:05:55;49.70;;;22.20;;
31132;SDS011;17779;50.942;4.026;2023-04-01T21:11:03;46.67;;;20.77;;
31132;SDS011;17779;50.942;4.026;2023-04-01T21:16:51;55.53;;;24.08;;
31132;SDS011;17779;50.942;4.026;2023-04-01T21:19:41;42.83;;;21.20;;
31132;SDS011;17779;50.942;4.026;2023-04-01T21:26:03;58.33;;;24.95;;
31132;SDS011;17779;50.942;4.026;2023-04-01T21:28:43;55.47;;;23.08;;
31132;SDS011;17779;50.942;4.026;2023-04-01T21:31:27;47.30;;;23.02;;
31132;SDS011;17779;50.942;4.026;2023-04-01T21:34:28;58.10;;;25.25;;
31132;SDS011;17779;50.942;4.026;2023-04-01T21:37:19;58.20;;;25.92;;
31132;SDS011;17779;50.942;4.026;2023-04-01T21:40:30;53.38;;;26.10;;
31132;SDS011;17779;50.942;4.026;2023-04-01T21:52:19;54.85;;;24.90;;
31132;SDS011;17779;50.942;4.026;2023-04-01T21:57:45;50.10;;;25.70;;
31132;SDS011;17779;50.942;4.026;2023-04-01T22:06:28;55.40;;;26.08;;
31132;SDS011;17779;50.942;4.026;2023-04-01T22:09:10;52.25;;;23.63;;
31132;SDS011;17779;50.942;4.026;2023-04-01T22:12:07;45.80;;;23.42;;
31132;SDS011;17779;50.942;4.026;2023-04-01T22:27:27;46.45;;;24.35;;
31132;SDS011;17779;50.942;4.026;2023-04-01T22:32:47;47.78;;;24.08;;
31132;SDS011;17779;50.942;4.026;2023-04-01T22:38:09;46.63;;;23.30;;
31132;SDS011;17779;50.942;4.026;2023-04-01T22:40:48;45.67;;;25.48;;
31132;SDS011;17779;50.942;4.026;2023-04-01T22:43:24;53.03;;;27.27;;
31132;SDS011;17779;50.942;4.026;2023-04-01T22:52:03;48.65;;;26.48;;
31132;SDS011;17779;50.942;4.026;2023-04-01T22:57:07;47.55;;;23.83;;
31132;SDS011;17779;50.942;4.026;2023-04-01T23:02:28;43.42;;;24.23;;
31132;SDS011;17779;50.942;4.026;2023-04-01T23:04:59;47.47;;;23.45;;
31132;SDS011;17779;50.942;4.026;2023-04-01T23:13:01;42.05;;;21.75;;
31132;SDS011;17779;50.942;4.026;2023-04-01T23:15:28;38.55;;;21.58;;
31132;SDS011;17779;50.942;4.026;2023-04-01T23:17:58;39.80;;;22.83;;
31132;SDS011;17779;50.942;4.026;2023-04-01T23:20:31;40.40;;;23.25;;
31132;SDS011;17779;50.942;4.026;2023-04-01T23:23:08;39.63;;;22.08;;
31132;SDS011;17779;50.942;4.026;2023-04-01T23:39:27;40.78;;;23.75;;
31132;SDS011;17779;50.942;4.026;2023-04-01T23:41:59;39.47;;;23.42;;
31132;SDS011;17779;50.942;4.026;2023-04-01T23:44:30;33.53;;;22.17;;
31132;SDS011;17779;50.942;4.026;2023-04-01T23:46:56;34.67;;;22.88;;
31132;SDS011;17779;50.942;4.026;2023-04-01T23:49:25;32.70;;;23.58;;
31132;SDS011;17779;50.942;4.026;2023-04-01T23:54:59;30.05;;;21.40;;
31132;SDS011;17779;50.942;4.026;2023-04-01T23:57:34;27.90;;;20.60;;
